Monroe County Airport
KBMG : now visible

Airfield :











YOU CAN JOIN US ON...

 
LOGIN :

Register | Disclaimer

   EN    FR    IT 

 









Legend :    VFR   Marginal VFR   IFR   Intensive IFR   Very Intensive IFR
Visi :
Ceiling :
>= 8 km
>= 3000ft
5 to 8 km
1000 to 3000 ft
1500m to 5 km
500 to 1000 ft
800 to 1500m
200 to 500 ft
< 800m
< 200 ft
Symbols :   Thunderstorms  Fog  Heavy snow  Heavy precipitations  Wind > 20 kt






- Airport Elevation : 846 ft
- IATA code : BMG


KBMG - Monroe County

CURRENT METAR :
  • 070400Z AUTO 00000KT 3/4SM BR BKN005 OVC013 09/08 A3000 RMK AO2 T00890083

EXPIRED METARs :
  • 070353Z AUTO 33003KT 3/4SM BR SCT005 OVC016 09/08 A3000 RMK AO2 RAB0255E15 SLP161 P0000 T00940083
  • 070328Z AUTO 00000KT 1 1/2SM BR SCT003 OVC015 09/08 A3000 RMK AO2 RAB0255E15 P0000 T00940083
  • 070253Z AUTO 00000KT 1 1/2SM BR OVC003 09/08 A3000 RMK AO2 SLP161 60012 T00940083 53006
  • 070207Z 00000KT 1 1/4SM BR BKN003 OVC025 09/08 A2999 RMK AO2 T00940083
  • 070156Z 00000KT 2SM BR BKN003 OVC025 09/08 A2998 RMK AO2 T00940083
  • 070131Z 00000KT 1 1/4SM BR SCT005 BKN027 OVC032 09/08 A2999 RMK AO2 RAE29 P0000 T00890083
  • 070116Z 34003KT 1 1/2SM -RA BR BKN005 BKN020 OVC033 09/08 A2999 RMK AO2 P0000 T00890078

TAF KBMG
Valid from the 07 at 01:00 until the 08 at 00:00 UTC


070121Z 0701/0724 00000KT 2SM -RA BR BKN010 OVC020
TEMPO 0701/0704 35003KT 1SM BR BKN005
FM070400 03003KT 3SM BR OVC005
FM070600 35003KT 3SM BR OVC002
FM071200 36004KT 6SM BR OVC007
FM071800 35003KT P6SM BKN030 AMD LTD TO CLD VIS AND WIND TIL 071400
KZID FIR / North America



MET'MAP, your aeronautical weather chart ! - Copyright ORBIFLY December 2007 - Disclaimer

ORBIFLY MET'MAP TEAM :

Programming & Development : Alexandra Zaïnal
Original concept : Baudouin d'Aumeries
Technical & hardware support : Manuel Goepfert
Assistance : Marc-Olivier Méhu




SOURCES & CREDITS :

   NOAA       Earth
Advisory